sensor_id;sensor_type;location;lat;lon;timestamp;P1;durP1;ratioP1;P2;durP2;ratioP2
11255;SDS011;5685;52.384;13.420;2023-01-09T00:01:11;66.70;;;38.13;;
11255;SDS011;5685;52.384;13.420;2023-01-09T00:04:15;67.33;;;38.20;;
11255;SDS011;5685;52.384;13.420;2023-01-09T00:07:18;67.70;;;38.20;;
11255;SDS011;5685;52.384;13.420;2023-01-09T00:10:21;67.77;;;38.20;;
11255;SDS011;5685;52.384;13.420;2023-01-09T00:13:23;68.07;;;38.33;;
11255;SDS011;5685;52.384;13.420;2023-01-09T00:16:27;68.17;;;38.40;;
11255;SDS011;5685;52.384;13.420;2023-01-09T00:19:30;68.43;;;38.27;;
11255;SDS011;5685;52.384;13.420;2023-01-09T00:22:33;68.07;;;38.20;;
11255;SDS011;5685;52.384;13.420;2023-01-09T00:25:36;68.47;;;38.33;;
11255;SDS011;5685;52.384;13.420;2023-01-09T00:28:40;67.83;;;38.17;;
11255;SDS011;5685;52.384;13.420;2023-01-09T00:31:44;67.63;;;38.20;;
11255;SDS011;5685;52.384;13.420;2023-01-09T00:34:46;67.70;;;38.17;;
11255;SDS011;5685;52.384;13.420;2023-01-09T00:37:49;66.60;;;38.10;;
11255;SDS011;5685;52.384;13.420;2023-01-09T00:40:52;66.73;;;38.10;;
11255;SDS011;5685;52.384;13.420;2023-01-09T00:43:56;68.10;;;38.40;;
11255;SDS011;5685;52.384;13.420;2023-01-09T00:47:04;68.47;;;38.40;;
11255;SDS011;5685;52.384;13.420;2023-01-09T00:50:12;67.63;;;38.13;;
11255;SDS011;5685;52.384;13.420;2023-01-09T00:53:18;66.40;;;38.10;;
11255;SDS011;5685;52.384;13.420;2023-01-09T00:56:23;66.93;;;38.23;;
11255;SDS011;5685;52.384;13.420;2023-01-09T00:59:26;67.90;;;38.33;;
11255;SDS011;5685;52.384;13.420;2023-01-09T01:02:30;66.87;;;38.03;;
11255;SDS011;5685;52.384;13.420;2023-01-09T01:05:32;67.33;;;38.10;;
11255;SDS011;5685;52.384;13.420;2023-01-09T01:09:07;67.63;;;38.13;;
11255;SDS011;5685;52.384;13.420;2023-01-09T01:12:10;67.87;;;38.20;;
11255;SDS011;5685;52.384;13.420;2023-01-09T01:15:13;68.33;;;38.40;;
11255;SDS011;5685;52.384;13.420;2023-01-09T01:18:17;66.63;;;38.10;;
11255;SDS011;5685;52.384;13.420;2023-01-09T01:21:20;67.40;;;38.30;;
11255;SDS011;5685;52.384;13.420;2023-01-09T01:24:23;67.87;;;38.30;;
11255;SDS011;5685;52.384;13.420;2023-01-09T01:27:26;68.27;;;38.37;;
11255;SDS011;5685;52.384;13.420;2023-01-09T01:30:29;67.97;;;38.37;;
11255;SDS011;5685;52.384;13.420;2023-01-09T01:33:33;68.03;;;38.27;;
11255;SDS011;5685;52.384;13.420;2023-01-09T01:36:36;67.90;;;38.30;;
11255;SDS011;5685;52.384;13.420;2023-01-09T01:39:39;67.80;;;38.23;;
11255;SDS011;5685;52.384;13.420;2023-01-09T01:42:45;67.70;;;38.10;;
11255;SDS011;5685;52.384;13.420;2023-01-09T01:45:48;67.80;;;38.20;;
11255;SDS011;5685;52.384;13.420;2023-01-09T01:48:52;67.77;;;38.40;;
11255;SDS011;5685;52.384;13.420;2023-01-09T01:51:58;67.77;;;38.50;;
11255;SDS011;5685;52.384;13.420;2023-01-09T01:55:01;67.47;;;38.20;;
11255;SDS011;5685;52.384;13.420;2023-01-09T01:58:06;67.47;;;38.10;;
11255;SDS011;5685;52.384;13.420;2023-01-09T02:01:11;68.00;;;38.30;;
11255;SDS011;5685;52.384;13.420;2023-01-09T02:04:16;68.40;;;38.30;;
11255;SDS011;5685;52.384;13.420;2023-01-09T02:07:19;68.10;;;38.20;;
11255;SDS011;5685;52.384;13.420;2023-01-09T02:10:22;68.30;;;38.27;;
11255;SDS011;5685;52.384;13.420;2023-01-09T02:13:24;68.67;;;38.40;;
11255;SDS011;5685;52.384;13.420;2023-01-09T02:16:32;68.37;;;38.30;;
11255;SDS011;5685;52.384;13.420;2023-01-09T02:20:06;67.90;;;38.27;;
11255;SDS011;5685;52.384;13.420;2023-01-09T02:27:05;67.33;;;38.10;;
11255;SDS011;5685;52.384;13.420;2023-01-09T02:30:19;67.60;;;38.10;;
11255;SDS011;5685;52.384;13.420;2023-01-09T02:33:34;67.17;;;38.10;;
11255;SDS011;5685;52.384;13.420;2023-01-09T02:36:45;66.87;;;38.03;;
11255;SDS011;5685;52.384;13.420;2023-01-09T02:39:54;67.50;;;38.17;;
11255;SDS011;5685;52.384;13.420;2023-01-09T02:43:00;66.83;;;38.03;;
11255;SDS011;5685;52.384;13.420;2023-01-09T02:46:05;66.80;;;38.17;;
11255;SDS011;5685;52.384;13.420;2023-01-09T02:49:19;67.00;;;38.00;;
11255;SDS011;5685;52.384;13.420;2023-01-09T02:52:30;67.70;;;38.27;;
11255;SDS011;5685;52.384;13.420;2023-01-09T02:55:42;67.37;;;38.10;;
11255;SDS011;5685;52.384;13.420;2023-01-09T02:58:56;67.33;;;38.20;;
11255;SDS011;5685;52.384;13.420;2023-01-09T03:02:24;66.90;;;38.20;;
11255;SDS011;5685;52.384;13.420;2023-01-09T03:05:37;67.50;;;38.37;;
11255;SDS011;5685;52.384;13.420;2023-01-09T03:08:43;67.37;;;38.37;;
11255;SDS011;5685;52.384;13.420;2023-01-09T03:11:49;67.40;;;38.20;;
11255;SDS011;5685;52.384;13.420;2023-01-09T03:14:54;67.03;;;38.10;;
11255;SDS011;5685;52.384;13.420;2023-01-09T03:18:00;66.83;;;38.00;;
11255;SDS011;5685;52.384;13.420;2023-01-09T03:21:05;66.57;;;37.80;;
11255;SDS011;5685;52.384;13.420;2023-01-09T03:24:09;67.20;;;38.07;;
11255;SDS011;5685;52.384;13.420;2023-01-09T03:27:12;67.40;;;38.43;;
11255;SDS011;5685;52.384;13.420;2023-01-09T03:30:15;67.53;;;38.40;;
11255;SDS011;5685;52.384;13.420;2023-01-09T03:33:19;66.97;;;38.10;;
11255;SDS011;5685;52.384;13.420;2023-01-09T03:36:24;67.60;;;38.13;;
11255;SDS011;5685;52.384;13.420;2023-01-09T03:39:27;68.17;;;38.30;;
11255;SDS011;5685;52.384;13.420;2023-01-09T03:42:30;67.70;;;38.10;;
11255;SDS011;5685;52.384;13.420;2023-01-09T03:45:32;67.17;;;38.23;;
11255;SDS011;5685;52.384;13.420;2023-01-09T03:48:37;67.37;;;38.30;;
11255;SDS011;5685;52.384;13.420;2023-01-09T03:51:39;66.93;;;38.20;;
11255;SDS011;5685;52.384;13.420;2023-01-09T03:54:42;66.27;;;38.20;;
11255;SDS011;5685;52.384;13.420;2023-01-09T03:57:45;67.50;;;38.30;;
11255;SDS011;5685;52.384;13.420;2023-01-09T04:00:48;66.13;;;38.00;;
11255;SDS011;5685;52.384;13.420;2023-01-09T04:03:52;66.77;;;38.13;;
11255;SDS011;5685;52.384;13.420;2023-01-09T04:06:55;66.30;;;38.17;;
11255;SDS011;5685;52.384;13.420;2023-01-09T04:09:58;66.53;;;38.27;;
11255;SDS011;5685;52.384;13.420;2023-01-09T04:13:00;65.30;;;38.00;;
11255;SDS011;5685;52.384;13.420;2023-01-09T04:16:03;65.67;;;37.77;;
11255;SDS011;5685;52.384;13.420;2023-01-09T04:19:08;64.73;;;38.10;;
11255;SDS011;5685;52.384;13.420;2023-01-09T04:22:11;64.07;;;37.70;;
11255;SDS011;5685;52.384;13.420;2023-01-09T04:25:14;66.10;;;37.93;;
11255;SDS011;5685;52.384;13.420;2023-01-09T04:28:17;64.93;;;37.97;;
11255;SDS011;5685;52.384;13.420;2023-01-09T04:31:19;65.17;;;38.07;;
11255;SDS011;5685;52.384;13.420;2023-01-09T04:34:23;64.60;;;38.20;;
11255;SDS011;5685;52.384;13.420;2023-01-09T04:37:26;65.43;;;38.00;;
11255;SDS011;5685;52.384;13.420;2023-01-09T04:40:29;64.63;;;37.73;;
11255;SDS011;5685;52.384;13.420;2023-01-09T04:43:32;64.77;;;37.80;;
11255;SDS011;5685;52.384;13.420;2023-01-09T04:46:34;63.57;;;37.70;;
11255;SDS011;5685;52.384;13.420;2023-01-09T04:49:39;63.87;;;37.80;;
11255;SDS011;5685;52.384;13.420;2023-01-09T04:52:41;63.50;;;37.80;;
11255;SDS011;5685;52.384;13.420;2023-01-09T04:55:44;64.27;;;37.83;;
11255;SDS011;5685;52.384;13.420;2023-01-09T04:58:47;66.17;;;37.80;;
11255;SDS011;5685;52.384;13.420;2023-01-09T05:01:49;68.27;;;38.30;;
11255;SDS011;5685;52.384;13.420;2023-01-09T05:04:55;70.53;;;38.50;;
11255;SDS011;5685;52.384;13.420;2023-01-09T05:07:57;69.70;;;38.40;;
11255;SDS011;5685;52.384;13.420;2023-01-09T05:11:00;69.70;;;38.37;;
11255;SDS011;5685;52.384;13.420;2023-01-09T05:14:03;70.17;;;38.53;;
11255;SDS011;5685;52.384;13.420;2023-01-09T05:17:05;69.20;;;38.10;;
11255;SDS011;5685;52.384;13.420;2023-01-09T05:20:10;69.90;;;38.50;;
11255;SDS011;5685;52.384;13.420;2023-01-09T05:23:13;70.50;;;38.53;;
11255;SDS011;5685;52.384;13.420;2023-01-09T05:26:15;70.20;;;38.50;;
11255;SDS011;5685;52.384;13.420;2023-01-09T05:29:22;70.27;;;38.33;;
11255;SDS011;5685;52.384;13.420;2023-01-09T05:32:25;69.00;;;38.30;;
11255;SDS011;5685;52.384;13.420;2023-01-09T05:35:29;69.80;;;38.40;;
11255;SDS011;5685;52.384;13.420;2023-01-09T05:38:32;69.53;;;38.37;;
11255;SDS011;5685;52.384;13.420;2023-01-09T05:41:35;70.30;;;38.30;;
11255;SDS011;5685;52.384;13.420;2023-01-09T05:44:37;70.50;;;38.47;;
11255;SDS011;5685;52.384;13.420;2023-01-09T05:47:40;70.33;;;38.50;;
11255;SDS011;5685;52.384;13.420;2023-01-09T05:50:46;69.93;;;38.40;;
11255;SDS011;5685;52.384;13.420;2023-01-09T05:53:49;70.03;;;38.60;;
11255;SDS011;5685;52.384;13.420;2023-01-09T05:56:52;70.37;;;38.40;;
11255;SDS011;5685;52.384;13.420;2023-01-09T05:59:54;69.90;;;38.30;;
11255;SDS011;5685;52.384;13.420;2023-01-09T06:02:57;70.30;;;38.40;;
11255;SDS011;5685;52.384;13.420;2023-01-09T06:06:02;70.30;;;38.47;;
11255;SDS011;5685;52.384;13.420;2023-01-09T06:09:04;70.30;;;38.50;;
11255;SDS011;5685;52.384;13.420;2023-01-09T06:12:07;69.97;;;38.20;;
11255;SDS011;5685;52.384;13.420;2023-01-09T06:15:10;70.00;;;38.30;;
11255;SDS011;5685;52.384;13.420;2023-01-09T06:18:14;69.60;;;38.37;;
11255;SDS011;5685;52.384;13.420;2023-01-09T06:21:18;70.00;;;38.60;;
11255;SDS011;5685;52.384;13.420;2023-01-09T06:24:21;69.20;;;38.10;;
11255;SDS011;5685;52.384;13.420;2023-01-09T06:27:24;68.90;;;38.30;;
11255;SDS011;5685;52.384;13.420;2023-01-09T06:30:27;68.57;;;38.20;;
11255;SDS011;5685;52.384;13.420;2023-01-09T06:33:29;67.70;;;38.20;;
11255;SDS011;5685;52.384;13.420;2023-01-09T06:36:33;68.20;;;38.30;;
11255;SDS011;5685;52.384;13.420;2023-01-09T06:39:36;67.57;;;38.10;;
11255;SDS011;5685;52.384;13.420;2023-01-09T06:42:41;66.57;;;37.73;;
11255;SDS011;5685;52.384;13.420;2023-01-09T06:45:45;67.10;;;37.90;;
11255;SDS011;5685;52.384;13.420;2023-01-09T06:48:47;65.80;;;37.90;;
11255;SDS011;5685;52.384;13.420;2023-01-09T06:51:52;65.90;;;38.10;;
11255;SDS011;5685;52.384;13.420;2023-01-09T06:54:54;63.90;;;37.70;;
11255;SDS011;5685;52.384;13.420;2023-01-09T06:57:57;63.60;;;37.87;;
11255;SDS011;5685;52.384;13.420;2023-01-09T07:01:00;63.70;;;37.70;;
11255;SDS011;5685;52.384;13.420;2023-01-09T07:04:02;63.83;;;37.77;;
11255;SDS011;5685;52.384;13.420;2023-01-09T07:07:07;64.40;;;38.00;;
11255;SDS011;5685;52.384;13.420;2023-01-09T07:10:10;64.60;;;37.90;;
11255;SDS011;5685;52.384;13.420;2023-01-09T07:13:12;64.50;;;37.70;;
11255;SDS011;5685;52.384;13.420;2023-01-09T07:16:15;64.53;;;37.80;;
11255;SDS011;5685;52.384;13.420;2023-01-09T07:19:18;64.43;;;37.87;;
11255;SDS011;5685;52.384;13.420;2023-01-09T07:22:22;64.27;;;37.80;;
11255;SDS011;5685;52.384;13.420;2023-01-09T07:25:25;65.53;;;37.60;;
11255;SDS011;5685;52.384;13.420;2023-01-09T07:28:27;65.07;;;37.60;;
11255;SDS011;5685;52.384;13.420;2023-01-09T07:31:30;66.67;;;37.87;;
11255;SDS011;5685;52.384;13.420;2023-01-09T07:34:33;67.70;;;37.97;;
11255;SDS011;5685;52.384;13.420;2023-01-09T07:37:37;68.30;;;38.23;;
11255;SDS011;5685;52.384;13.420;2023-01-09T07:40:40;69.10;;;38.43;;
11255;SDS011;5685;52.384;13.420;2023-01-09T07:43:43;68.87;;;38.00;;
11255;SDS011;5685;52.384;13.420;2023-01-09T07:46:46;68.50;;;38.10;;
11255;SDS011;5685;52.384;13.420;2023-01-09T07:49:48;68.13;;;38.30;;
11255;SDS011;5685;52.384;13.420;2023-01-09T07:52:52;69.00;;;38.10;;
11255;SDS011;5685;52.384;13.420;2023-01-09T07:55:55;69.07;;;37.97;;
11255;SDS011;5685;52.384;13.420;2023-01-09T07:58:58;69.43;;;38.20;;
11255;SDS011;5685;52.384;13.420;2023-01-09T08:02:00;69.20;;;38.13;;
11255;SDS011;5685;52.384;13.420;2023-01-09T08:05:05;69.47;;;38.10;;
11255;SDS011;5685;52.384;13.420;2023-01-09T08:08:14;69.10;;;38.13;;
11255;SDS011;5685;52.384;13.420;2023-01-09T08:11:17;68.60;;;38.30;;
11255;SDS011;5685;52.384;13.420;2023-01-09T08:14:19;69.27;;;38.30;;
11255;SDS011;5685;52.384;13.420;2023-01-09T08:17:22;68.83;;;38.10;;
11255;SDS011;5685;52.384;13.420;2023-01-09T08:20:25;69.03;;;38.20;;
11255;SDS011;5685;52.384;13.420;2023-01-09T08:23:29;68.97;;;38.10;;
11255;SDS011;5685;52.384;13.420;2023-01-09T08:26:31;69.13;;;38.00;;
11255;SDS011;5685;52.384;13.420;2023-01-09T08:29:34;69.20;;;38.20;;
11255;SDS011;5685;52.384;13.420;2023-01-09T08:32:37;68.37;;;38.00;;
11255;SDS011;5685;52.384;13.420;2023-01-09T08:35:41;68.23;;;38.10;;
11255;SDS011;5685;52.384;13.420;2023-01-09T08:38:45;68.17;;;38.07;;
11255;SDS011;5685;52.384;13.420;2023-01-09T08:41:48;69.53;;;38.43;;
11255;SDS011;5685;52.384;13.420;2023-01-09T08:45:08;67.30;;;37.77;;
11255;SDS011;5685;52.384;13.420;2023-01-09T08:48:29;68.47;;;37.90;;
11255;SDS011;5685;52.384;13.420;2023-01-09T08:51:31;68.93;;;38.10;;
11255;SDS011;5685;52.384;13.420;2023-01-09T08:54:36;69.00;;;38.20;;
11255;SDS011;5685;52.384;13.420;2023-01-09T08:57:39;68.87;;;38.10;;
11255;SDS011;5685;52.384;13.420;2023-01-09T09:00:49;69.03;;;38.20;;
11255;SDS011;5685;52.384;13.420;2023-01-09T09:03:52;68.93;;;38.10;;
11255;SDS011;5685;52.384;13.420;2023-01-09T09:06:54;68.23;;;38.00;;
11255;SDS011;5685;52.384;13.420;2023-01-09T09:09:58;68.93;;;38.10;;
11255;SDS011;5685;52.384;13.420;2023-01-09T09:13:01;69.87;;;38.40;;
11255;SDS011;5685;52.384;13.420;2023-01-09T09:16:04;68.97;;;38.20;;
11255;SDS011;5685;52.384;13.420;2023-01-09T09:19:07;69.50;;;38.37;;
11255;SDS011;5685;52.384;13.420;2023-01-09T09:22:10;70.03;;;38.50;;
11255;SDS011;5685;52.384;13.420;2023-01-09T09:25:14;70.30;;;38.40;;
11255;SDS011;5685;52.384;13.420;2023-01-09T09:28:18;70.03;;;38.43;;
11255;SDS011;5685;52.384;13.420;2023-01-09T09:31:20;70.07;;;38.50;;
11255;SDS011;5685;52.384;13.420;2023-01-09T09:34:24;68.37;;;37.80;;
11255;SDS011;5685;52.384;13.420;2023-01-09T09:37:27;68.83;;;38.20;;
11255;SDS011;5685;52.384;13.420;2023-01-09T09:40:40;68.43;;;38.10;;
11255;SDS011;5685;52.384;13.420;2023-01-09T09:43:59;69.10;;;38.20;;
11255;SDS011;5685;52.384;13.420;2023-01-09T09:47:39;69.20;;;38.30;;
11255;SDS011;5685;52.384;13.420;2023-01-09T09:50:52;69.30;;;38.07;;
11255;SDS011;5685;52.384;13.420;2023-01-09T09:54:03;69.67;;;38.30;;
11255;SDS011;5685;52.384;13.420;2023-01-09T09:57:11;68.47;;;38.20;;
11255;SDS011;5685;52.384;13.420;2023-01-09T10:00:17;68.97;;;38.37;;
11255;SDS011;5685;52.384;13.420;2023-01-09T10:03:24;67.70;;;37.97;;
11255;SDS011;5685;52.384;13.420;2023-01-09T10:06:29;67.83;;;37.90;;
11255;SDS011;5685;52.384;13.420;2023-01-09T10:09:35;67.50;;;37.90;;
11255;SDS011;5685;52.384;13.420;2023-01-09T10:12:46;67.80;;;38.07;;
11255;SDS011;5685;52.384;13.420;2023-01-09T10:15:55;68.13;;;38.17;;
11255;SDS011;5685;52.384;13.420;2023-01-09T10:19:05;68.60;;;38.17;;
11255;SDS011;5685;52.384;13.420;2023-01-09T10:22:19;68.47;;;38.10;;
11255;SDS011;5685;52.384;13.420;2023-01-09T10:25:29;69.40;;;38.33;;
11255;SDS011;5685;52.384;13.420;2023-01-09T10:28:45;67.13;;;37.90;;
11255;SDS011;5685;52.384;13.420;2023-01-09T10:35:44;68.53;;;38.07;;
11255;SDS011;5685;52.384;13.420;2023-01-09T10:39:11;68.60;;;37.80;;
11255;SDS011;5685;52.384;13.420;2023-01-09T10:42:19;69.50;;;38.30;;
11255;SDS011;5685;52.384;13.420;2023-01-09T10:45:26;68.77;;;38.10;;
11255;SDS011;5685;52.384;13.420;2023-01-09T10:48:31;68.63;;;38.20;;
11255;SDS011;5685;52.384;13.420;2023-01-09T10:51:36;68.50;;;38.00;;
11255;SDS011;5685;52.384;13.420;2023-01-09T10:54:47;67.83;;;37.80;;
11255;SDS011;5685;52.384;13.420;2023-01-09T10:57:53;68.37;;;38.00;;
11255;SDS011;5685;52.384;13.420;2023-01-09T11:01:00;68.10;;;37.73;;
11255;SDS011;5685;52.384;13.420;2023-01-09T11:04:07;68.47;;;38.10;;
11255;SDS011;5685;52.384;13.420;2023-01-09T11:07:18;69.53;;;38.23;;
11255;SDS011;5685;52.384;13.420;2023-01-09T11:10:24;69.00;;;38.07;;
11255;SDS011;5685;52.384;13.420;2023-01-09T11:13:46;69.17;;;38.00;;
11255;SDS011;5685;52.384;13.420;2023-01-09T11:17:11;68.70;;;37.90;;
11255;SDS011;5685;52.384;13.420;2023-01-09T11:20:21;69.57;;;38.20;;
11255;SDS011;5685;52.384;13.420;2023-01-09T11:23:27;69.63;;;37.97;;
11255;SDS011;5685;52.384;13.420;2023-01-09T11:26:31;68.43;;;37.90;;
11255;SDS011;5685;52.384;13.420;2023-01-09T11:29:34;69.40;;;38.10;;
11255;SDS011;5685;52.384;13.420;2023-01-09T11:32:38;69.77;;;38.30;;
11255;SDS011;5685;52.384;13.420;2023-01-09T11:35:48;69.60;;;38.17;;
11255;SDS011;5685;52.384;13.420;2023-01-09T11:38:57;70.07;;;38.27;;
11255;SDS011;5685;52.384;13.420;2023-01-09T11:42:02;70.10;;;38.30;;
11255;SDS011;5685;52.384;13.420;2023-01-09T11:45:09;70.47;;;38.47;;
11255;SDS011;5685;52.384;13.420;2023-01-09T11:48:18;69.27;;;38.23;;
11255;SDS011;5685;52.384;13.420;2023-01-09T11:51:29;69.60;;;38.17;;
11255;SDS011;5685;52.384;13.420;2023-01-09T11:54:33;68.77;;;38.00;;
11255;SDS011;5685;52.384;13.420;2023-01-09T11:57:37;68.97;;;37.97;;
11255;SDS011;5685;52.384;13.420;2023-01-09T12:00:43;68.50;;;37.87;;
11255;SDS011;5685;52.384;13.420;2023-01-09T12:03:56;69.20;;;38.00;;
11255;SDS011;5685;52.384;13.420;2023-01-09T12:10:59;69.10;;;37.87;;
11255;SDS011;5685;52.384;13.420;2023-01-09T12:17:51;69.77;;;38.17;;
11255;SDS011;5685;52.384;13.420;2023-01-09T12:21:08;69.90;;;38.27;;
11255;SDS011;5685;52.384;13.420;2023-01-09T12:24:26;69.33;;;38.10;;
11255;SDS011;5685;52.384;13.420;2023-01-09T12:27:38;69.63;;;38.40;;
11255;SDS011;5685;52.384;13.420;2023-01-09T12:30:57;69.80;;;38.13;;
11255;SDS011;5685;52.384;13.420;2023-01-09T12:34:13;70.00;;;38.30;;
11255;SDS011;5685;52.384;13.420;2023-01-09T12:37:33;69.30;;;38.30;;
11255;SDS011;5685;52.384;13.420;2023-01-09T12:40:51;69.47;;;38.27;;
11255;SDS011;5685;52.384;13.420;2023-01-09T12:44:15;69.37;;;38.40;;
11255;SDS011;5685;52.384;13.420;2023-01-09T12:47:51;68.97;;;38.10;;
11255;SDS011;5685;52.384;13.420;2023-01-09T12:54:22;69.20;;;38.20;;
11255;SDS011;5685;52.384;13.420;2023-01-09T12:57:29;68.43;;;37.90;;
11255;SDS011;5685;52.384;13.420;2023-01-09T13:00:36;69.47;;;38.23;;
11255;SDS011;5685;52.384;13.420;2023-01-09T13:03:42;69.27;;;38.00;;
11255;SDS011;5685;52.384;13.420;2023-01-09T13:06:49;69.07;;;38.03;;
11255;SDS011;5685;52.384;13.420;2023-01-09T13:09:57;69.70;;;38.50;;
11255;SDS011;5685;52.384;13.420;2023-01-09T13:13:04;69.47;;;38.30;;
11255;SDS011;5685;52.384;13.420;2023-01-09T13:16:12;69.70;;;38.50;;
11255;SDS011;5685;52.384;13.420;2023-01-09T13:19:19;69.07;;;38.20;;
11255;SDS011;5685;52.384;13.420;2023-01-09T13:22:26;69.77;;;38.20;;
11255;SDS011;5685;52.384;13.420;2023-01-09T13:25:38;69.70;;;38.17;;
11255;SDS011;5685;52.384;13.420;2023-01-09T13:28:44;69.27;;;38.30;;
11255;SDS011;5685;52.384;13.420;2023-01-09T13:31:55;69.57;;;38.50;;
11255;SDS011;5685;52.384;13.420;2023-01-09T13:35:10;70.00;;;38.50;;
11255;SDS011;5685;52.384;13.420;2023-01-09T13:38:15;69.93;;;38.43;;
11255;SDS011;5685;52.384;13.420;2023-01-09T13:41:20;69.60;;;38.50;;
11255;SDS011;5685;52.384;13.420;2023-01-09T13:44:42;69.13;;;38.20;;
11255;SDS011;5685;52.384;13.420;2023-01-09T13:47:45;67.93;;;38.07;;
11255;SDS011;5685;52.384;13.420;2023-01-09T13:50:48;69.07;;;38.30;;
11255;SDS011;5685;52.384;13.420;2023-01-09T13:53:54;68.53;;;38.20;;
11255;SDS011;5685;52.384;13.420;2023-01-09T13:57:22;69.27;;;38.40;;
11255;SDS011;5685;52.384;13.420;2023-01-09T14:00:45;69.57;;;38.30;;
11255;SDS011;5685;52.384;13.420;2023-01-09T14:04:25;69.30;;;38.27;;
11255;SDS011;5685;52.384;13.420;2023-01-09T14:07:34;68.90;;;38.10;;
11255;SDS011;5685;52.384;13.420;2023-01-09T14:10:44;69.60;;;38.33;;
11255;SDS011;5685;52.384;13.420;2023-01-09T14:13:54;70.60;;;38.53;;
11255;SDS011;5685;52.384;13.420;2023-01-09T14:17:04;69.67;;;38.40;;
11255;SDS011;5685;52.384;13.420;2023-01-09T14:20:22;69.90;;;38.50;;
11255;SDS011;5685;52.384;13.420;2023-01-09T14:23:28;69.63;;;38.50;;
11255;SDS011;5685;52.384;13.420;2023-01-09T14:26:42;69.87;;;38.50;;
11255;SDS011;5685;52.384;13.420;2023-01-09T14:29:47;69.43;;;38.30;;
11255;SDS011;5685;52.384;13.420;2023-01-09T14:32:54;70.10;;;38.50;;
11255;SDS011;5685;52.384;13.420;2023-01-09T14:36:02;69.80;;;38.47;;
11255;SDS011;5685;52.384;13.420;2023-01-09T14:39:06;69.93;;;38.30;;
11255;SDS011;5685;52.384;13.420;2023-01-09T14:42:10;69.07;;;38.33;;
11255;SDS011;5685;52.384;13.420;2023-01-09T14:45:17;70.13;;;38.50;;
11255;SDS011;5685;52.384;13.420;2023-01-09T14:48:23;70.30;;;38.40;;
11255;SDS011;5685;52.384;13.420;2023-01-09T14:51:26;71.00;;;38.70;;
11255;SDS011;5685;52.384;13.420;2023-01-09T14:54:32;70.60;;;38.50;;
11255;SDS011;5685;52.384;13.420;2023-01-09T14:57:38;70.70;;;38.60;;
11255;SDS011;5685;52.384;13.420;2023-01-09T15:00:50;70.03;;;38.40;;
11255;SDS011;5685;52.384;13.420;2023-01-09T15:03:56;70.47;;;38.30;;
11255;SDS011;5685;52.384;13.420;2023-01-09T15:07:00;70.93;;;38.77;;
11255;SDS011;5685;52.384;13.420;2023-01-09T15:10:04;70.87;;;38.60;;
11255;SDS011;5685;52.384;13.420;2023-01-09T15:13:09;71.17;;;38.70;;
11255;SDS011;5685;52.384;13.420;2023-01-09T15:16:19;70.43;;;38.50;;
11255;SDS011;5685;52.384;13.420;2023-01-09T15:19:24;70.50;;;38.40;;
11255;SDS011;5685;52.384;13.420;2023-01-09T15:22:27;70.60;;;38.60;;
11255;SDS011;5685;52.384;13.420;2023-01-09T15:25:31;69.47;;;38.27;;
11255;SDS011;5685;52.384;13.420;2023-01-09T15:28:39;69.87;;;38.40;;
11255;SDS011;5685;52.384;13.420;2023-01-09T15:31:44;69.73;;;38.40;;
11255;SDS011;5685;52.384;13.420;2023-01-09T15:34:49;70.23;;;38.57;;
11255;SDS011;5685;52.384;13.420;2023-01-09T15:37:52;69.93;;;38.50;;
11255;SDS011;5685;52.384;13.420;2023-01-09T15:40:56;69.73;;;38.30;;
11255;SDS011;5685;52.384;13.420;2023-01-09T15:43:59;69.70;;;38.47;;
11255;SDS011;5685;52.384;13.420;2023-01-09T15:47:04;70.43;;;38.60;;
11255;SDS011;5685;52.384;13.420;2023-01-09T15:50:11;70.70;;;38.60;;
11255;SDS011;5685;52.384;13.420;2023-01-09T15:53:15;70.80;;;38.80;;
11255;SDS011;5685;52.384;13.420;2023-01-09T15:56:20;70.57;;;38.50;;
11255;SDS011;5685;52.384;13.420;2023-01-09T15:59:25;70.77;;;38.60;;
11255;SDS011;5685;52.384;13.420;2023-01-09T16:02:30;70.53;;;38.30;;
11255;SDS011;5685;52.384;13.420;2023-01-09T16:05:50;70.17;;;38.30;;
11255;SDS011;5685;52.384;13.420;2023-01-09T16:08:57;70.10;;;38.33;;
11255;SDS011;5685;52.384;13.420;2023-01-09T16:12:00;70.67;;;38.50;;
11255;SDS011;5685;52.384;13.420;2023-01-09T16:15:04;70.90;;;38.70;;
11255;SDS011;5685;52.384;13.420;2023-01-09T16:18:16;70.50;;;38.60;;
11255;SDS011;5685;52.384;13.420;2023-01-09T16:21:22;70.00;;;38.40;;
11255;SDS011;5685;52.384;13.420;2023-01-09T16:24:34;69.87;;;38.33;;
11255;SDS011;5685;52.384;13.420;2023-01-09T16:27:40;69.57;;;38.40;;
11255;SDS011;5685;52.384;13.420;2023-01-09T16:30:49;70.20;;;38.40;;
11255;SDS011;5685;52.384;13.420;2023-01-09T16:33:56;70.17;;;38.50;;
11255;SDS011;5685;52.384;13.420;2023-01-09T16:37:00;69.93;;;38.60;;
11255;SDS011;5685;52.384;13.420;2023-01-09T16:43:35;69.73;;;38.33;;
11255;SDS011;5685;52.384;13.420;2023-01-09T16:46:38;70.50;;;38.63;;
11255;SDS011;5685;52.384;13.420;2023-01-09T16:49:44;69.93;;;38.60;;
11255;SDS011;5685;52.384;13.420;2023-01-09T16:52:46;69.83;;;38.37;;
11255;SDS011;5685;52.384;13.420;2023-01-09T16:55:49;70.87;;;38.50;;
11255;SDS011;5685;52.384;13.420;2023-01-09T16:58:52;70.47;;;38.40;;
11255;SDS011;5685;52.384;13.420;2023-01-09T17:01:55;70.50;;;38.60;;
11255;SDS011;5685;52.384;13.420;2023-01-09T17:04:59;70.57;;;38.50;;
11255;SDS011;5685;52.384;13.420;2023-01-09T17:08:02;70.30;;;38.40;;
11255;SDS011;5685;52.384;13.420;2023-01-09T17:11:05;70.43;;;38.50;;
11255;SDS011;5685;52.384;13.420;2023-01-09T17:14:09;70.90;;;38.53;;
11255;SDS011;5685;52.384;13.420;2023-01-09T17:17:13;69.80;;;38.40;;
11255;SDS011;5685;52.384;13.420;2023-01-09T17:20:18;69.53;;;38.37;;
11255;SDS011;5685;52.384;13.420;2023-01-09T17:23:24;69.47;;;38.40;;
11255;SDS011;5685;52.384;13.420;2023-01-09T17:26:27;69.77;;;38.40;;
11255;SDS011;5685;52.384;13.420;2023-01-09T17:29:47;69.33;;;38.27;;
11255;SDS011;5685;52.384;13.420;2023-01-09T17:32:50;69.57;;;38.37;;
11255;SDS011;5685;52.384;13.420;2023-01-09T17:35:54;69.77;;;38.60;;
11255;SDS011;5685;52.384;13.420;2023-01-09T17:38:58;70.13;;;38.40;;
11255;SDS011;5685;52.384;13.420;2023-01-09T17:42:01;69.77;;;38.30;;
11255;SDS011;5685;52.384;13.420;2023-01-09T17:45:04;70.40;;;38.40;;
11255;SDS011;5685;52.384;13.420;2023-01-09T17:48:10;70.83;;;38.70;;
11255;SDS011;5685;52.384;13.420;2023-01-09T17:51:17;70.63;;;38.50;;
11255;SDS011;5685;52.384;13.420;2023-01-09T17:54:20;70.40;;;38.33;;
11255;SDS011;5685;52.384;13.420;2023-01-09T17:57:23;69.70;;;38.20;;
11255;SDS011;5685;52.384;13.420;2023-01-09T18:00:26;70.10;;;38.43;;
11255;SDS011;5685;52.384;13.420;2023-01-09T18:03:31;69.33;;;38.40;;
11255;SDS011;5685;52.384;13.420;2023-01-09T18:06:36;69.80;;;38.60;;
11255;SDS011;5685;52.384;13.420;2023-01-09T18:09:38;69.63;;;38.40;;
11255;SDS011;5685;52.384;13.420;2023-01-09T18:12:41;70.23;;;38.70;;
11255;SDS011;5685;52.384;13.420;2023-01-09T18:15:46;69.27;;;38.20;;
11255;SDS011;5685;52.384;13.420;2023-01-09T18:18:49;68.80;;;38.20;;
11255;SDS011;5685;52.384;13.420;2023-01-09T18:21:53;69.07;;;38.20;;
11255;SDS011;5685;52.384;13.420;2023-01-09T18:24:58;69.10;;;38.50;;
11255;SDS011;5685;52.384;13.420;2023-01-09T18:28:00;68.77;;;38.37;;
11255;SDS011;5685;52.384;13.420;2023-01-09T18:31:03;69.37;;;38.40;;